createdAt,value
2022-08-07T00:02:36.276Z,1.60
2022-08-07T00:05:04.150Z,1.80
2022-08-07T00:07:40.093Z,1.50
2022-08-07T00:10:26.516Z,1.50
2022-08-07T00:13:09.536Z,1.47
2022-08-07T00:15:46.073Z,1.50
2022-08-07T00:18:23.135Z,1.43
2022-08-07T00:21:08.147Z,1.50
2022-08-07T00:23:52.378Z,1.50
2022-08-07T00:26:59.102Z,1.67
2022-08-07T00:29:06.616Z,1.67
2022-08-07T00:31:37.474Z,1.33
2022-08-07T00:34:10.002Z,1.80
2022-08-07T00:36:43.112Z,1.60
2022-08-07T00:39:12.810Z,1.50
2022-08-07T00:42:01.890Z,1.47
2022-08-07T00:44:33.814Z,1.40
2022-08-07T00:47:03.442Z,1.40
2022-08-07T00:50:18.980Z,1.50
2022-08-07T00:52:20.817Z,1.30
2022-08-07T00:54:53.605Z,1.37
2022-08-07T00:57:25.789Z,1.50
2022-08-07T00:59:53.957Z,1.90
2022-08-07T01:02:28.377Z,1.60
2022-08-07T01:04:58.219Z,1.50
2022-08-07T01:07:27.621Z,1.50
2022-08-07T01:10:05.754Z,1.23
2022-08-07T01:12:38.796Z,1.30
2022-08-07T01:15:11.894Z,1.50
2022-08-07T01:17:44.278Z,1.30
2022-08-07T01:20:16.881Z,1.50
2022-08-07T01:22:46.647Z,1.30
2022-08-07T01:25:54.580Z,1.40
2022-08-07T01:28:01.744Z,1.40
2022-08-07T01:30:31.170Z,1.40
2022-08-07T01:32:58.822Z,1.40
2022-08-07T01:35:26.605Z,1.30
2022-08-07T01:38:13.849Z,1.30
2022-08-07T01:40:57.420Z,1.37
2022-08-07T01:43:26.119Z,1.40
2022-08-07T01:46:02.665Z,1.27
2022-08-07T01:48:32.537Z,1.20
2022-08-07T01:51:58.656Z,1.33
2022-08-07T01:54:09.151Z,1.27
2022-08-07T01:57:08.240Z,1.47
2022-08-07T02:00:13.687Z,1.30
2022-08-07T02:03:11.707Z,1.20
2022-08-07T02:05:59.441Z,1.40
2022-08-07T02:08:30.582Z,1.30
2022-08-07T02:11:00.175Z,1.30
2022-08-07T02:13:56.805Z,1.50
2022-08-07T02:16:33.152Z,1.50
2022-08-07T02:19:05.622Z,1.30
2022-08-07T02:21:57.028Z,1.40
2022-08-07T02:24:29.354Z,1.40
2022-08-07T02:27:01.166Z,1.33
2022-08-07T02:29:29.157Z,1.30
2022-08-07T02:31:57.891Z,1.30
2022-08-07T02:34:28.340Z,1.20
2022-08-07T02:37:00.736Z,1.40
2022-08-07T02:39:43.477Z,1.20
2022-08-07T02:42:17.970Z,1.20
2022-08-07T02:44:49.808Z,1.27
2022-08-07T02:47:44.832Z,1.17
2022-08-07T02:50:07.888Z,1.40
2022-08-07T02:53:06.379Z,1.50
2022-08-07T02:56:04.225Z,1.30
2022-08-07T02:58:27.489Z,1.30
2022-08-07T03:00:58.044Z,1.40
2022-08-07T03:03:50.192Z,1.30
2022-08-07T03:06:32.041Z,1.20
2022-08-07T03:09:02.903Z,1.20
2022-08-07T03:11:32.656Z,1.37
2022-08-07T03:14:06.124Z,1.17
2022-08-07T03:16:34.979Z,1.23
2022-08-07T03:19:02.443Z,1.20
2022-08-07T03:21:32.984Z,1.10
2022-08-07T03:24:18.359Z,1.40
2022-08-07T03:26:58.112Z,1.20
2022-08-07T03:29:46.013Z,1.60
2022-08-07T03:32:23.964Z,1.30
2022-08-07T03:35:00.994Z,1.17
2022-08-07T03:37:46.284Z,1.10
2022-08-07T03:40:22.218Z,1.20
2022-08-07T03:42:53.957Z,1.27
2022-08-07T03:45:30.918Z,1.40
2022-08-07T03:47:59.667Z,1.20
2022-08-07T03:50:28.621Z,1.20
2022-08-07T03:53:00.360Z,1.27
2022-08-07T03:55:53.101Z,1.30
2022-08-07T03:59:06.751Z,1.50
2022-08-07T04:01:11.672Z,1.20
2022-08-07T04:03:53.624Z,1.20
2022-08-07T04:06:37.208Z,1.40
2022-08-07T04:09:08.478Z,1.30
2022-08-07T04:12:26.571Z,1.30
2022-08-07T04:14:37.576Z,1.30
2022-08-07T04:18:11.165Z,1.20
2022-08-07T04:19:54.402Z,1.10
2022-08-07T04:22:28.905Z,1.30
2022-08-07T04:25:01.658Z,1.40
2022-08-07T04:27:36.181Z,1.40
2022-08-07T04:30:21.660Z,1.20
2022-08-07T04:32:59.867Z,1.47
2022-08-07T04:35:35.019Z,1.50
2022-08-07T04:38:13.134Z,1.40
2022-08-07T04:40:52.143Z,1.33
2022-08-07T04:44:12.566Z,1.20
2022-08-07T04:46:29.435Z,1.50
2022-08-07T04:49:25.813Z,1.30
2022-08-07T04:52:03.775Z,1.50
2022-08-07T04:54:50.434Z,1.30
2022-08-07T04:58:13.072Z,1.23
2022-08-07T05:00:59.009Z,1.10
2022-08-07T05:04:06.531Z,1.37
2022-08-07T05:07:27.589Z,1.20
2022-08-07T05:10:19.563Z,1.17
2022-08-07T05:14:54.506Z,1.27
2022-08-07T05:16:22.664Z,1.40
2022-08-07T05:18:56.787Z,1.30
2022-08-07T05:21:59.551Z,1.20
2022-08-07T05:24:20.848Z,1.10
2022-08-07T05:27:01.705Z,1.30
2022-08-07T05:29:38.807Z,1.30
2022-08-07T05:32:18.975Z,1.30
2022-08-07T05:34:49.640Z,1.30
2022-08-07T05:37:26.272Z,1.10
2022-08-07T05:40:13.979Z,1.20
2022-08-07T05:42:42.236Z,1.10
2022-08-07T05:45:47.055Z,1.27
2022-08-07T05:48:12.164Z,1.20
2022-08-07T05:50:42.893Z,1.10
2022-08-07T05:54:12.780Z,1.03
2022-08-07T05:56:03.795Z,1.07
2022-08-07T05:58:36.863Z,1.07
2022-08-07T06:01:10.526Z,1.00
2022-08-07T06:03:56.615Z,1.10
2022-08-07T06:06:29.489Z,1.10
2022-08-07T06:08:59.408Z,1.20
2022-08-07T06:11:27.194Z,1.00
2022-08-07T06:14:12.789Z,0.90
2022-08-07T06:16:49.942Z,1.10
2022-08-07T06:19:52.353Z,1.17
2022-08-07T06:22:14.940Z,1.20
2022-08-07T06:24:58.207Z,1.30
2022-08-07T06:27:44.131Z,1.40
2022-08-07T06:30:24.398Z,1.50
2022-08-07T06:33:04.102Z,1.53
2022-08-07T06:35:45.318Z,1.40
2022-08-07T06:38:20.462Z,1.40
2022-08-07T06:40:53.014Z,1.30
2022-08-07T06:43:23.612Z,1.30
2022-08-07T06:45:51.620Z,1.27
2022-08-07T06:48:25.262Z,1.40
2022-08-07T06:50:54.789Z,1.40
2022-08-07T06:55:29.352Z,1.40
2022-08-07T06:56:15.166Z,1.30
2022-08-07T07:00:14.488Z,1.23
2022-08-07T07:01:44.170Z,1.50
2022-08-07T07:04:28.258Z,1.60
2022-08-07T07:07:02.384Z,1.33
2022-08-07T07:09:38.249Z,1.30
2022-08-07T07:12:29.200Z,1.37
2022-08-07T07:15:36.084Z,1.50
2022-08-07T07:18:46.943Z,1.50
2022-08-07T07:21:40.273Z,1.57
2022-08-07T07:24:25.751Z,1.70
2022-08-07T07:26:56.147Z,1.60
2022-08-07T07:29:56.559Z,1.43
2022-08-07T07:32:19.074Z,1.60
2022-08-07T07:34:51.612Z,1.60
2022-08-07T07:37:44.268Z,1.47
2022-08-07T07:40:15.552Z,1.60
2022-08-07T07:42:50.909Z,1.73
2022-08-07T07:46:37.326Z,1.50
2022-08-07T07:48:35.154Z,1.50
2022-08-07T07:51:07.839Z,1.47
2022-08-07T07:53:51.350Z,1.50
2022-08-07T07:56:30.115Z,1.60
2022-08-07T07:59:00.269Z,1.43
2022-08-07T08:02:04.061Z,1.40
2022-08-07T08:04:20.187Z,1.43
2022-08-07T08:06:53.771Z,1.60
2022-08-07T08:09:29.455Z,1.50
2022-08-07T08:12:01.872Z,1.40
2022-08-07T08:14:36.206Z,1.50
2022-08-07T08:17:32.382Z,1.40
2022-08-07T08:20:18.780Z,1.30
2022-08-07T08:23:10.130Z,1.50
2022-08-07T08:26:03.350Z,1.30
2022-08-07T08:28:44.772Z,1.17
2022-08-07T08:31:30.309Z,1.30
2022-08-07T08:34:10.280Z,1.20
2022-08-07T08:36:40.774Z,1.20
2022-08-07T08:39:13.511Z,1.10
2022-08-07T08:41:57.587Z,1.17
2022-08-07T08:45:26.879Z,1.30
2022-08-07T08:48:18.568Z,1.03
2022-08-07T08:52:12.498Z,1.10
2022-08-07T08:54:44.997Z,1.03
2022-08-07T08:57:45.228Z,0.90
2022-08-07T09:00:13.915Z,1.00
2022-08-07T09:03:47.805Z,0.90
2022-08-07T09:06:22.384Z,1.03
2022-08-07T09:09:13.486Z,1.00
2022-08-07T09:12:30.488Z,1.00
2022-08-07T09:16:23.194Z,1.00
2022-08-07T09:19:03.430Z,0.70
2022-08-07T09:22:09.761Z,0.90
2022-08-07T09:24:58.748Z,0.83
2022-08-07T09:28:00.101Z,0.80
2022-08-07T09:30:46.462Z,0.77
2022-08-07T09:34:01.964Z,0.70
2022-08-07T09:36:46.640Z,0.80
2022-08-07T09:39:55.125Z,0.90
2022-08-07T09:43:00.261Z,0.70
2022-08-07T09:47:25.422Z,0.90
2022-08-07T09:50:02.458Z,0.70
2022-08-07T09:52:40.598Z,0.90
2022-08-07T09:56:03.933Z,0.97
2022-08-07T09:59:14.636Z,0.73
2022-08-07T10:02:16.312Z,0.77
2022-08-07T10:04:47.732Z,0.77
2022-08-07T10:08:21.249Z,0.77
2022-08-07T10:12:01.137Z,0.80
2022-08-07T10:15:15.317Z,0.70
2022-08-07T10:18:15.032Z,0.90
2022-08-07T10:21:50.338Z,0.80
2022-08-07T10:24:33.504Z,0.60
2022-08-07T10:27:53.160Z,0.70
2022-08-07T10:30:53.314Z,0.70
2022-08-07T10:34:05.645Z,0.60
2022-08-07T10:36:47.969Z,0.68
2022-08-07T10:40:03.551Z,0.60
2022-08-07T10:43:29.728Z,0.70
2022-08-07T10:46:30.037Z,0.70
2022-08-07T10:49:49.325Z,0.70
2022-08-07T10:53:21.508Z,0.70
2022-08-07T10:56:31.510Z,0.70
2022-08-07T10:59:54.614Z,0.68
2022-08-07T11:03:10.937Z,0.70
2022-08-07T11:05:52.383Z,0.80
2022-08-07T11:08:45.663Z,0.60
2022-08-07T11:11:35.584Z,0.70
2022-08-07T11:14:43.693Z,0.88
2022-08-07T11:17:46.232Z,0.90
2022-08-07T11:20:56.924Z,0.82
2022-08-07T11:23:38.602Z,0.80
2022-08-07T11:26:21.334Z,0.73
2022-08-07T11:29:41.136Z,1.00
2022-08-07T11:32:25.725Z,0.90
2022-08-07T11:35:01.228Z,0.80
2022-08-07T11:38:36.116Z,0.93
2022-08-07T11:41:28.343Z,0.82
2022-08-07T11:44:51.966Z,1.00
2022-08-07T11:47:59.485Z,0.77
2022-08-07T11:50:58.049Z,0.82
2022-08-07T11:54:01.360Z,0.70
2022-08-07T11:57:14.098Z,0.75
2022-08-07T12:00:18.944Z,0.90
2022-08-07T12:03:44.385Z,0.80
2022-08-07T12:06:51.492Z,0.90
2022-08-07T12:09:35.486Z,0.80
2022-08-07T12:12:22.807Z,0.73
2022-08-07T12:15:46.335Z,0.98
2022-08-07T12:18:29.886Z,0.70
2022-08-07T12:21:55.825Z,0.70
2022-08-07T12:25:07.453Z,0.80
2022-08-07T12:28:09.963Z,0.75
2022-08-07T12:30:46.552Z,0.75
2022-08-07T12:33:28.153Z,0.80
2022-08-07T12:35:58.888Z,0.90
2022-08-07T12:38:42.991Z,0.88
2022-08-07T12:41:15.885Z,0.70
2022-08-07T12:44:02.284Z,0.80
2022-08-07T12:47:39.621Z,0.90
2022-08-07T12:50:38.372Z,0.60
2022-08-07T12:53:28.215Z,0.80
2022-08-07T12:56:10.255Z,0.80
2022-08-07T12:58:44.289Z,0.98
2022-08-07T13:01:16.761Z,0.80
2022-08-07T13:04:31.736Z,0.82
2022-08-07T13:08:12.555Z,0.80
2022-08-07T13:10:39.886Z,0.68
2022-08-07T13:13:48.443Z,0.75
2022-08-07T13:16:43.773Z,0.80
2022-08-07T13:19:51.592Z,0.90
2022-08-07T13:22:31.630Z,0.80
2022-08-07T13:25:29.085Z,0.70
2022-08-07T13:28:10.680Z,0.80
2022-08-07T13:30:53.461Z,0.98
2022-08-07T13:34:30.242Z,0.80
2022-08-07T13:38:01.127Z,0.70
2022-08-07T13:40:55.286Z,0.80
2022-08-07T13:43:23.124Z,0.90
2022-08-07T13:46:12.937Z,0.82
2022-08-07T13:48:59.419Z,0.70
2022-08-07T13:52:04.476Z,0.80
2022-08-07T13:54:23.747Z,0.80
2022-08-07T13:56:59.451Z,0.65
2022-08-07T13:59:31.772Z,0.90
2022-08-07T14:02:12.956Z,1.00
2022-08-07T14:04:55.023Z,0.70
2022-08-07T14:07:30.609Z,0.88
2022-08-07T14:10:16.302Z,0.70
2022-08-07T14:13:00.465Z,0.80
2022-08-07T14:15:42.404Z,1.00
2022-08-07T14:18:27.337Z,0.90
2022-08-07T14:22:01.286Z,1.00
2022-08-07T14:24:06.620Z,0.80
2022-08-07T14:27:00.187Z,0.80
2022-08-07T14:30:07.464Z,0.90
2022-08-07T14:32:26.886Z,0.85
2022-08-07T14:34:54.960Z,0.80
2022-08-07T14:37:23.872Z,0.80
2022-08-07T14:40:17.392Z,0.88
2022-08-07T14:43:57.573Z,0.90
2022-08-07T14:46:02.732Z,0.90
2022-08-07T14:48:37.807Z,0.90
2022-08-07T14:54:33.000Z,0.90
2022-08-07T14:57:54.621Z,0.98
2022-08-07T15:00:06.751Z,0.85
2022-08-07T15:02:37.136Z,0.85
2022-08-07T15:05:19.848Z,0.90
2022-08-07T15:08:19.683Z,0.95
2022-08-07T15:10:58.858Z,0.98
2022-08-07T15:13:37.107Z,1.10
2022-08-07T15:19:08.389Z,1.10
2022-08-07T15:25:38.054Z,0.80
2022-08-07T15:31:06.422Z,0.82
2022-08-07T15:33:36.262Z,1.00
2022-08-07T15:42:46.419Z,0.93
2022-08-07T15:44:21.322Z,0.80
2022-08-07T15:47:09.118Z,1.10
2022-08-07T15:50:03.831Z,1.20
2022-08-07T15:52:34.413Z,1.00
2022-08-07T15:55:09.015Z,1.33
2022-08-07T15:57:48.478Z,1.30
2022-08-07T16:00:32.031Z,1.42
2022-08-07T16:03:22.179Z,1.48
2022-08-07T16:06:06.560Z,1.30
2022-08-07T16:08:38.322Z,1.60
2022-08-07T16:11:27.171Z,1.00
2022-08-07T16:14:19.349Z,1.33
2022-08-07T16:18:02.245Z,1.13
2022-08-07T16:21:44.032Z,1.00
2022-08-07T16:24:34.475Z,0.98
2022-08-07T16:27:41.585Z,1.00
2022-08-07T16:30:31.963Z,1.00
2022-08-07T16:34:01.890Z,1.00
2022-08-07T16:37:02.481Z,1.00
2022-08-07T16:40:05.977Z,0.95
2022-08-07T16:42:47.981Z,0.93
2022-08-07T16:46:34.711Z,1.00
2022-08-07T16:50:27.341Z,0.95
2022-08-07T16:52:55.677Z,0.80
2022-08-07T16:55:46.945Z,1.00
2022-08-07T16:58:54.338Z,1.00
2022-08-07T17:01:34.456Z,0.82
2022-08-07T17:05:08.534Z,0.88
2022-08-07T17:07:58.249Z,0.90
2022-08-07T17:10:38.312Z,0.82
2022-08-07T17:14:18.033Z,0.80
2022-08-07T17:16:58.360Z,0.95
2022-08-07T17:20:01.806Z,1.00
2022-08-07T17:22:45.676Z,0.90
2022-08-07T17:25:47.937Z,0.80
2022-08-07T17:28:31.303Z,0.75
2022-08-07T17:31:44.225Z,0.80
2022-08-07T17:34:40.947Z,0.88
2022-08-07T17:38:06.707Z,0.80
2022-08-07T17:40:39.611Z,1.00
2022-08-07T17:43:18.885Z,0.80
2022-08-07T17:45:57.023Z,0.90
2022-08-07T17:48:31.788Z,0.70
2022-08-07T17:51:21.362Z,0.80
2022-08-07T17:54:11.441Z,1.05
2022-08-07T17:56:55.426Z,0.93
2022-08-07T17:59:50.457Z,0.90
2022-08-07T18:02:36.394Z,0.80
2022-08-07T18:05:21.719Z,0.70
2022-08-07T18:08:31.190Z,0.90
2022-08-07T18:12:07.645Z,0.90
2022-08-07T18:14:29.888Z,0.90
2022-08-07T18:18:36.649Z,0.77
2022-08-07T18:21:04.308Z,0.70
2022-08-07T18:23:42.068Z,0.70
2022-08-07T18:26:15.298Z,0.80
2022-08-07T18:30:06.171Z,0.90
2022-08-07T18:32:39.198Z,0.80
2022-08-07T18:35:59.487Z,0.90
2022-08-07T18:40:08.226Z,1.00
2022-08-07T18:42:20.891Z,1.00
2022-08-07T18:45:44.507Z,0.98
2022-08-07T18:50:19.374Z,0.75
2022-08-07T18:52:33.416Z,0.70
2022-08-07T18:55:43.730Z,1.05
2022-08-07T18:58:42.592Z,1.00
2022-08-07T19:02:18.776Z,0.75
2022-08-07T19:04:57.601Z,0.80
2022-08-07T19:07:56.886Z,0.70
2022-08-07T19:10:52.037Z,0.90
2022-08-07T19:14:00.779Z,0.80
2022-08-07T19:17:05.460Z,0.93
2022-08-07T19:19:58.975Z,0.90
2022-08-07T19:23:57.165Z,0.80
2022-08-07T19:26:24.644Z,1.00
2022-08-07T19:31:05.681Z,1.00
2022-08-07T19:32:17.099Z,0.90
2022-08-07T19:35:01.219Z,1.20
2022-08-07T19:37:55.245Z,1.00
2022-08-07T19:40:31.007Z,1.30
2022-08-07T19:43:02.267Z,1.20
2022-08-07T19:46:09.206Z,1.00
2022-08-07T19:48:53.954Z,1.40
2022-08-07T19:51:50.781Z,1.33
2022-08-07T19:54:32.672Z,1.23
2022-08-07T19:58:00.291Z,1.30
2022-08-07T20:00:08.759Z,1.30
2022-08-07T20:02:51.543Z,1.23
2022-08-07T20:05:29.730Z,1.20
2022-08-07T20:08:11.686Z,1.52
2022-08-07T20:10:54.472Z,1.70
2022-08-07T20:13:38.189Z,2.10
2022-08-07T20:16:15.785Z,1.80
2022-08-07T20:19:02.257Z,1.67
2022-08-07T20:21:41.670Z,1.30
2022-08-07T20:24:31.940Z,1.53
2022-08-07T20:27:02.565Z,1.70
2022-08-07T20:29:48.855Z,1.40
2022-08-07T20:32:46.598Z,1.40
2022-08-07T20:35:26.217Z,1.53
2022-08-07T20:37:58.619Z,1.70
2022-08-07T20:40:32.076Z,1.43
2022-08-07T20:43:09.538Z,1.60
2022-08-07T20:46:25.606Z,1.53
2022-08-07T20:48:36.050Z,1.60
2022-08-07T20:51:09.778Z,1.50
2022-08-07T20:54:04.369Z,1.43
2022-08-07T20:56:33.491Z,1.53
2022-08-07T20:59:05.809Z,1.53
2022-08-07T21:01:36.545Z,1.50
2022-08-07T21:04:22.779Z,1.70
2022-08-07T21:06:56.956Z,1.67
2022-08-07T21:09:51.830Z,1.70
2022-08-07T21:12:28.690Z,1.70
2022-08-07T21:14:59.470Z,1.77
2022-08-07T21:18:27.899Z,1.47
2022-08-07T21:20:29.885Z,1.70
2022-08-07T21:23:08.042Z,1.63
2022-08-07T21:26:17.918Z,1.60
2022-08-07T21:28:59.350Z,1.60
2022-08-07T21:32:42.914Z,1.43
2022-08-07T21:35:02.623Z,1.57
2022-08-07T21:37:58.563Z,1.70
2022-08-07T21:41:09.619Z,1.60
2022-08-07T21:44:05.955Z,1.60
2022-08-07T21:46:52.293Z,1.83
2022-08-07T21:50:02.646Z,1.67
2022-08-07T21:53:16.228Z,1.60
2022-08-07T21:56:16.813Z,1.50
2022-08-07T21:59:22.532Z,1.83
2022-08-07T22:02:10.948Z,1.60
2022-08-07T22:04:53.967Z,1.70
2022-08-07T22:07:31.685Z,1.67
2022-08-07T22:10:14.444Z,1.30
2022-08-07T22:13:09.328Z,1.23
2022-08-07T22:16:44.188Z,1.40
2022-08-07T22:18:50.165Z,1.60
2022-08-07T22:22:01.961Z,1.50
2022-08-07T22:24:43.630Z,1.40
2022-08-07T22:27:34.206Z,1.50
2022-08-07T22:30:21.881Z,1.37
2022-08-07T22:33:15.270Z,1.40
2022-08-07T22:36:12.225Z,1.50
2022-08-07T22:38:59.398Z,1.40
2022-08-07T22:42:04.009Z,1.50
2022-08-07T22:44:32.752Z,1.50
2022-08-07T22:47:18.055Z,1.50
2022-08-07T22:50:20.495Z,1.53
2022-08-07T22:52:57.404Z,1.47
2022-08-07T22:56:08.688Z,1.57
2022-08-07T22:59:04.933Z,1.33
2022-08-07T23:02:27.820Z,1.50
2022-08-07T23:06:10.127Z,1.50
2022-08-07T23:08:56.017Z,1.40
2022-08-07T23:11:59.313Z,1.50
2022-08-07T23:15:08.943Z,1.50
2022-08-07T23:18:19.585Z,1.40
2022-08-07T23:21:36.486Z,1.60
2022-08-07T23:24:34.817Z,1.30
2022-08-07T23:27:34.528Z,1.60
2022-08-07T23:30:37.033Z,1.50
2022-08-07T23:34:34.649Z,1.37
2022-08-07T23:37:20.011Z,1.60
2022-08-07T23:40:34.579Z,1.30
2022-08-07T23:43:37.940Z,1.37
2022-08-07T23:46:51.355Z,1.30
2022-08-07T23:49:51.060Z,1.30
2022-08-07T23:53:05.781Z,1.27
2022-08-07T23:55:51.843Z,1.30
2022-08-07T23:58:59.342Z,1.27
